< Typhoon 196624 1966 Season Typhoon 196626 >
Typhoon 196625 (NO-NAME)
General InformationTrack Information on Google Maps || Disaster Info.ResourceGoogle EarthGE AnimationAtom FeedGeoJSON
Detalied Best Track (Time Zone = UTC)
Year Month Day Hour Lat. Long. Pressure (hPa) Wind (kt) Class Image Chart
1966 9 20 00 19.0 149.0 1010 0 2 -- Chart
1966 9 20 06 19.9 147.6 1010 0 2 -- Chart
1966 9 20 12 21.0 146.4 1008 0 2 -- Chart
1966 9 20 18 22.0 145.1 1008 0 2 -- Chart
1966 9 21 00 23.1 143.9 1007 0 2 -- Chart
1966 9 21 06 24.3 142.8 1006 0 2 -- Chart
1966 9 21 12 25.8 141.8 1004 0 2 -- Chart
1966 9 21 18 27.1 141.1 1004 0 2 -- Chart
1966 9 22 00 28.6 140.7 1002 0 2 -- Chart
1966 9 22 06 29.8 141.0 998 0 2 -- Chart
1966 9 22 12 30.9 141.5 996 0 9 -- Chart
1966 9 22 18 32.1 142.4 994 0 9 -- Chart
1966 9 23 00 33.5 143.5 992 0 9 -- Chart
1966 9 23 06 35.3 145.0 992 0 9 -- Chart
1966 9 23 12 36.9 147.1 990 0 9 -- Chart
1966 9 23 18 38.5 151.5 996 0 9 -- Chart
1966 9 24 00 39.0 156.0 998 0 6 -- Chart
1966 9 24 06 39.0 160.0 1002 0 6 -- Chart
1966 9 24 12 39.9 165.0 1002 0 6 -- Chart
1966 9 24 18 40.9 170.0 1002 0 6 -- Chart
1966 9 25 00 41.5 177.5 996 0 6 -- Chart
1966 9 25 06 41.8 184.0 994 0 6 -- Chart
Japan Meteorological Agency Best Track Data | Correction Date : 1989-06-01
< Typhoon 196624 1966 Season Typhoon 196626 >

Help